createdAt,value
2022-10-23T00:02:20.391Z,15.25
2022-10-23T00:07:23.091Z,18.38
2022-10-23T00:12:28.424Z,16.77
2022-10-23T00:17:33.142Z,15.30
2022-10-23T00:22:35.891Z,19.30
2022-10-23T00:27:38.832Z,19.08
2022-10-23T00:32:41.561Z,15.98
2022-10-23T00:37:44.464Z,17.90
2022-10-23T00:42:47.879Z,20.95
2022-10-23T00:47:51.060Z,15.48
2022-10-23T00:52:55.169Z,14.05
2022-10-23T00:57:57.943Z,15.35
2022-10-23T01:03:00.593Z,17.85
2022-10-23T01:08:11.101Z,17.92
2022-10-23T01:13:21.190Z,19.65
2022-10-23T01:18:36.781Z,15.70
2022-10-23T01:23:48.409Z,19.58
2022-10-23T01:29:20.099Z,16.85
2022-10-23T01:34:49.488Z,18.55
2022-10-23T01:39:54.388Z,18.55
2022-10-23T01:45:23.798Z,17.67
2022-10-23T01:50:27.814Z,24.85
2022-10-23T01:55:38.097Z,25.02
2022-10-23T02:00:43.784Z,16.20
2022-10-23T02:05:46.758Z,20.05
2022-10-23T02:10:53.647Z,14.23
2022-10-23T02:16:07.017Z,11.90
2022-10-23T02:21:15.750Z,13.45
2022-10-23T02:26:28.166Z,11.35
2022-10-23T02:31:31.839Z,11.02
2022-10-23T02:36:34.684Z,8.85
2022-10-23T02:41:49.060Z,10.95
2022-10-23T02:47:09.877Z,12.30
2022-10-23T02:52:22.382Z,14.88
2022-10-23T02:57:38.357Z,9.77
2022-10-23T03:02:53.033Z,10.00
2022-10-23T03:07:57.393Z,11.85
2022-10-23T03:13:00.359Z,9.45
2022-10-23T03:18:07.947Z,5.90
2022-10-23T03:23:13.588Z,9.77
2022-10-23T03:33:19.197Z,12.30
2022-10-23T03:38:21.923Z,10.80
2022-10-23T03:43:24.898Z,4.60
2022-10-23T03:48:27.643Z,13.45
2022-10-23T03:53:34.552Z,12.90
2022-10-23T03:58:39.773Z,11.35
2022-10-23T04:03:42.718Z,13.73
2022-10-23T04:08:45.914Z,6.32
2022-10-23T04:13:51.635Z,8.18
2022-10-23T04:18:54.497Z,6.80
2022-10-23T04:23:58.328Z,5.18
2022-10-23T04:29:01.025Z,4.38
2022-10-23T04:39:09.122Z,7.20
2022-10-23T04:44:12.727Z,4.18
2022-10-23T04:49:15.586Z,2.70
2022-10-23T04:54:38.115Z,7.78
2022-10-23T05:00:01.250Z,5.03
2022-10-23T05:05:10.807Z,4.35
2022-10-23T05:10:30.393Z,2.60
2022-10-23T05:15:52.697Z,4.32
2022-10-23T05:21:00.800Z,4.50
2022-10-23T05:26:05.450Z,5.57
2022-10-23T05:36:15.604Z,3.65
2022-10-23T05:41:20.246Z,5.53
2022-10-23T05:46:24.132Z,5.15
2022-10-23T05:51:49.870Z,4.60
2022-10-23T05:57:34.190Z,3.95
2022-10-23T06:02:41.473Z,3.50
2022-10-23T06:08:10.407Z,3.40
2022-10-23T06:13:13.763Z,2.75
2022-10-23T06:18:17.088Z,1.52
2022-10-23T06:23:46.728Z,2.40
2022-10-23T06:28:52.499Z,4.60
2022-10-23T06:33:56.356Z,3.05
2022-10-23T06:44:29.632Z,3.47
2022-10-23T06:49:35.654Z,4.45
2022-10-23T06:54:39.163Z,1.13
2022-10-23T06:59:52.954Z,1.48
2022-10-23T07:04:56.834Z,0.63
2022-10-23T07:09:59.604Z,1.42
2022-10-23T07:15:22.512Z,2.67
2022-10-23T07:20:25.548Z,2.10
2022-10-23T07:25:29.483Z,1.10
2022-10-23T07:30:34.312Z,1.25
2022-10-23T07:35:40.207Z,0.90
2022-10-23T07:40:49.555Z,1.25
2022-10-23T07:45:54.579Z,0.90
2022-10-23T07:51:08.680Z,1.80
2022-10-23T07:56:23.945Z,2.17
2022-10-23T08:01:46.243Z,1.33
2022-10-23T08:06:49.625Z,1.45
2022-10-23T08:11:52.584Z,2.28
2022-10-23T08:16:57.658Z,2.05
2022-10-23T08:22:23.637Z,3.40
2022-10-23T08:27:26.627Z,2.88
2022-10-23T08:32:30.790Z,2.72
2022-10-23T08:37:35.394Z,1.27
2022-10-23T08:42:39.155Z,2.17
2022-10-23T08:47:46.106Z,3.53
2022-10-23T08:52:52.751Z,1.35
2022-10-23T08:58:04.795Z,1.88
2022-10-23T09:03:07.606Z,2.25
2022-10-23T09:08:26.389Z,2.50
2022-10-23T09:13:41.390Z,2.80
2022-10-23T09:18:44.272Z,4.25
2022-10-23T09:23:47.084Z,3.28
2022-10-23T09:28:52.723Z,3.15
2022-10-23T09:34:01.313Z,2.83
2022-10-23T09:39:04.128Z,2.42
2022-10-23T09:44:27.447Z,1.65
2022-10-23T09:49:34.241Z,2.72
2022-10-23T09:54:46.459Z,2.28
2022-10-23T09:59:54.077Z,2.05
2022-10-23T10:04:58.285Z,1.20
2022-10-23T10:10:01.049Z,2.60
2022-10-23T10:15:13.169Z,3.40
2022-10-23T10:20:22.069Z,3.78
2022-10-23T10:25:37.209Z,2.50
2022-10-23T10:31:10.198Z,3.30
2022-10-23T10:36:47.574Z,4.25
2022-10-23T10:42:14.195Z,7.18
2022-10-23T10:47:32.052Z,6.20
2022-10-23T10:53:02.715Z,3.65
2022-10-23T10:58:37.657Z,4.07
2022-10-23T11:03:50.677Z,3.47
2022-10-23T11:08:57.944Z,7.00
2022-10-23T11:14:08.117Z,3.50
2022-10-23T11:19:26.548Z,7.23
2022-10-23T11:24:40.751Z,7.45
2022-10-23T11:29:54.052Z,4.05
2022-10-23T11:35:15.207Z,5.03
2022-10-23T11:40:24.941Z,5.88
2022-10-23T11:45:32.457Z,4.32
2022-10-23T11:50:51.570Z,4.57
2022-10-23T11:55:59.636Z,5.63
2022-10-23T12:01:05.972Z,4.53
2022-10-23T12:06:21.502Z,3.95
2022-10-23T12:11:48.895Z,4.82
2022-10-23T12:16:51.862Z,4.57
2022-10-23T12:22:02.347Z,4.85
2022-10-23T12:27:52.273Z,5.03
2022-10-23T12:33:06.104Z,4.18
2022-10-23T12:38:15.328Z,4.70
2022-10-23T12:43:26.766Z,5.45
2022-10-23T12:48:29.554Z,3.15
2022-10-23T12:53:52.872Z,5.03
2022-10-23T12:59:01.451Z,6.23
2022-10-23T13:04:28.576Z,3.83
2022-10-23T13:09:34.856Z,3.28
2022-10-23T13:15:09.199Z,3.90
2022-10-23T13:20:19.902Z,4.40
2022-10-23T13:25:33.449Z,4.13
2022-10-23T13:30:43.181Z,3.20
2022-10-23T13:36:02.530Z,3.40
2022-10-23T13:41:07.279Z,3.08
2022-10-23T13:46:21.652Z,2.35
2022-10-23T13:51:26.846Z,2.70
2022-10-23T13:56:30.606Z,2.20
2022-10-23T14:01:36.313Z,2.40
2022-10-23T14:06:39.439Z,3.53
2022-10-23T14:11:42.675Z,3.80
2022-10-23T14:16:45.431Z,3.80
2022-10-23T14:21:48.210Z,4.43
2022-10-23T14:26:51.002Z,2.72
2022-10-23T14:31:53.770Z,3.95
2022-10-23T14:37:08.250Z,3.58
2022-10-23T14:42:11.647Z,2.40
2022-10-23T14:47:14.417Z,3.28
2022-10-23T14:52:17.357Z,3.30
2022-10-23T14:57:22.563Z,3.90
2022-10-23T15:07:27.839Z,6.13
2022-10-23T15:12:30.618Z,8.55
2022-10-23T15:17:34.497Z,5.03
2022-10-23T15:22:37.295Z,4.85
2022-10-23T15:27:40.264Z,4.55
2022-10-23T15:32:43.711Z,4.75
2022-10-23T15:37:46.782Z,4.97
2022-10-23T15:42:50.556Z,4.03
2022-10-23T15:47:53.320Z,6.22
2022-10-23T15:52:56.131Z,4.70
2022-10-23T15:58:02.660Z,4.43
2022-10-23T16:03:05.441Z,3.75
2022-10-23T16:08:08.230Z,3.50
2022-10-23T16:13:11.038Z,3.88
2022-10-23T16:18:16.396Z,4.35
2022-10-23T16:23:19.262Z,3.30
2022-10-23T16:28:22.157Z,4.57
2022-10-23T16:33:25.018Z,3.33
2022-10-23T16:38:27.738Z,3.63
2022-10-23T16:43:31.100Z,3.83
2022-10-23T16:48:41.872Z,3.20
2022-10-23T16:53:45.582Z,3.80
2022-10-23T16:58:48.619Z,3.63
2022-10-23T17:03:52.722Z,4.22
2022-10-23T17:08:56.337Z,5.43
2022-10-23T17:14:07.984Z,4.93
2022-10-23T17:19:20.602Z,4.45
2022-10-23T17:24:29.570Z,4.22
2022-10-23T17:29:32.375Z,4.45
2022-10-23T17:34:35.091Z,3.83
2022-10-23T17:39:37.843Z,4.63
2022-10-23T17:44:40.607Z,4.43
2022-10-23T17:49:45.493Z,3.58
2022-10-23T17:54:52.641Z,4.78
2022-10-23T17:59:55.450Z,4.82
2022-10-23T18:04:58.183Z,3.78
2022-10-23T18:10:01.018Z,4.28
2022-10-23T18:15:05.860Z,4.32
2022-10-23T18:20:09.065Z,3.40
2022-10-23T18:25:11.868Z,4.10
2022-10-23T18:30:15.194Z,4.25
2022-10-23T18:35:18.262Z,3.55
2022-10-23T18:40:23.120Z,3.75
2022-10-23T18:45:28.310Z,3.72
2022-10-23T18:50:35.352Z,3.78
2022-10-23T18:55:45.443Z,4.15
2022-10-23T19:00:48.228Z,4.88
2022-10-23T19:05:51.757Z,2.70
2022-10-23T19:10:55.152Z,3.83
2022-10-23T19:15:57.795Z,2.90
2022-10-23T19:21:01.750Z,3.40
2022-10-23T19:26:09.157Z,2.97
2022-10-23T19:31:12.721Z,6.78
2022-10-23T19:36:17.508Z,4.00
2022-10-23T19:41:21.298Z,3.40
2022-10-23T19:46:24.006Z,3.60
2022-10-23T19:51:26.805Z,6.47
2022-10-23T19:56:29.566Z,4.10
2022-10-23T20:01:32.544Z,2.90
2022-10-23T20:06:36.187Z,5.50
2022-10-23T20:11:39.764Z,5.45
2022-10-23T20:16:45.197Z,4.05
2022-10-23T20:21:49.450Z,3.30
2022-10-23T20:26:54.182Z,2.70
2022-10-23T20:31:56.852Z,5.43
2022-10-23T20:36:59.619Z,5.38
2022-10-23T20:42:03.538Z,3.88
2022-10-23T20:47:06.272Z,3.88
2022-10-23T20:52:08.933Z,4.85
2022-10-23T20:57:11.672Z,2.75
2022-10-23T21:02:14.511Z,4.10
2022-10-23T21:07:18.562Z,2.95
2022-10-23T21:12:21.420Z,3.42
2022-10-23T21:17:24.132Z,3.58
2022-10-23T21:22:26.958Z,3.63
2022-10-23T21:27:29.740Z,3.25
2022-10-23T21:32:32.383Z,3.03
2022-10-23T21:37:35.039Z,3.55
2022-10-23T21:42:37.694Z,3.22
2022-10-23T21:47:40.435Z,3.70
2022-10-23T21:52:43.495Z,3.65
2022-10-23T21:57:46.414Z,3.83
2022-10-23T22:02:49.319Z,2.63
2022-10-23T22:07:52.345Z,3.35
2022-10-23T22:12:55.050Z,3.10
2022-10-23T22:17:59.467Z,2.63
2022-10-23T22:23:02.251Z,2.50
2022-10-23T22:28:04.871Z,3.63
2022-10-23T22:33:07.519Z,4.93
2022-10-23T22:38:10.153Z,3.20
2022-10-23T22:43:12.893Z,5.10
2022-10-23T22:48:15.571Z,3.72
2022-10-23T22:53:18.268Z,3.78
2022-10-23T22:58:21.232Z,4.15
2022-10-23T23:03:23.961Z,3.70
2022-10-23T23:08:26.841Z,4.05
2022-10-23T23:13:29.617Z,4.07
2022-10-23T23:18:32.657Z,7.40
2022-10-23T23:23:35.412Z,5.60
2022-10-23T23:28:38.685Z,4.90
2022-10-23T23:33:42.291Z,4.95
2022-10-23T23:38:45.148Z,5.60
2022-10-23T23:43:47.881Z,5.18
2022-10-23T23:48:50.964Z,4.63
2022-10-23T23:53:53.973Z,3.28
2022-10-23T23:58:58.096Z,2.80
